Stanton, Nebraska
Current Conditions -  °F | °C
As of 1:56 PM on Friday 24 Oct 2014 (Local Time) from KOFK Reporting Station
Clear Clear  
Wind Chill: 69°   Ceiling: Unl
Heat Index: 69°   Visibility: 10mi
Dew Point: 51°   Wind: 0mph
Humidity: 53%   Direction: NA
Pressure: 29.92"   Gusts: NA
Location:  41.95°N, 97.22°W
Report Text: KOFK 241856Z AUTO 00000KT 10SM CLR 21/11 A2992 RMK AO2 SLP128 T02060106
Loading
Personal Weather Stations






























Interactive Weather Map
Tropical Storm Tracking
New forecast layout! Learn more

10-Day Weather Forecast

Advertisements
Track Severe Weather on mobile